createdAt,value
2023-01-17T00:02:12.706Z,98.90
2023-01-17T00:05:00.503Z,95.22
2023-01-17T00:07:46.586Z,95.99
2023-01-17T00:10:22.893Z,96.71
2023-01-17T00:12:52.894Z,96.39
2023-01-17T00:15:20.424Z,96.76
2023-01-17T00:17:48.909Z,98.96
2023-01-17T00:20:36.143Z,98.43
2023-01-17T00:23:32.304Z,99.49
2023-01-17T00:26:04.550Z,99.61
2023-01-17T00:28:38.768Z,99.61
2023-01-17T00:31:06.933Z,99.44
2023-01-17T00:33:34.161Z,100.00
2023-01-17T00:36:01.990Z,100.00
2023-01-17T00:38:31.016Z,100.00
2023-01-17T00:41:09.296Z,100.00
2023-01-17T00:43:54.373Z,100.00
2023-01-17T00:46:40.394Z,100.00
2023-01-17T00:49:26.108Z,100.00
2023-01-17T00:52:11.652Z,100.00
2023-01-17T00:54:56.436Z,100.00
2023-01-17T00:57:42.161Z,100.00
2023-01-17T01:00:27.995Z,100.00
2023-01-17T01:03:12.765Z,100.00
2023-01-17T01:05:58.174Z,100.00
2023-01-17T01:08:46.300Z,100.00
2023-01-17T01:11:35.319Z,100.00
2023-01-17T01:14:20.547Z,100.00
2023-01-17T01:17:05.859Z,100.00
2023-01-17T01:19:51.229Z,100.00
2023-01-17T01:22:38.934Z,100.00
2023-01-17T01:25:23.983Z,100.00
2023-01-17T01:28:09.215Z,100.00
2023-01-17T01:30:56.733Z,100.00
2023-01-17T01:33:23.226Z,100.00
2023-01-17T01:35:54.505Z,100.00
2023-01-17T01:38:23.880Z,100.00
2023-01-17T01:40:55.950Z,100.00
2023-01-17T01:43:58.916Z,100.00
2023-01-17T01:46:34.354Z,100.00
2023-01-17T01:49:05.053Z,100.00
2023-01-17T01:51:51.160Z,100.00
2023-01-17T01:54:22.852Z,100.00
2023-01-17T01:56:52.479Z,100.00
2023-01-17T01:59:21.163Z,100.00
2023-01-17T02:01:50.402Z,100.00
2023-01-17T02:04:18.768Z,100.00
2023-01-17T02:06:55.996Z,100.00
2023-01-17T02:09:25.111Z,100.00
2023-01-17T02:11:51.656Z,100.00
2023-01-17T02:14:20.320Z,100.00
2023-01-17T02:16:57.527Z,100.00
2023-01-17T02:19:36.207Z,100.00
2023-01-17T02:22:14.406Z,100.00
2023-01-17T02:25:20.505Z,100.00
2023-01-17T02:27:53.086Z,100.00
2023-01-17T02:30:30.570Z,100.00
2023-01-17T02:33:29.314Z,100.00
2023-01-17T02:36:20.131Z,100.00
2023-01-17T02:38:46.666Z,100.00
2023-01-17T02:41:26.637Z,100.00
2023-01-17T02:43:53.986Z,100.00
2023-01-17T02:46:20.693Z,100.00
2023-01-17T02:48:48.586Z,100.00
2023-01-17T02:51:57.287Z,100.00
2023-01-17T02:55:15.220Z,100.00
2023-01-17T02:58:03.118Z,100.00
2023-01-17T03:01:05.193Z,100.00
2023-01-17T03:03:38.750Z,100.00
2023-01-17T03:06:22.571Z,100.00
2023-01-17T03:08:50.504Z,100.00
2023-01-17T03:11:20.050Z,100.00
2023-01-17T03:13:46.635Z,100.00
2023-01-17T03:16:21.991Z,100.00
2023-01-17T03:18:51.405Z,100.00
2023-01-17T03:21:17.976Z,100.00
2023-01-17T03:23:44.618Z,100.00
2023-01-17T03:26:11.408Z,100.00
2023-01-17T03:28:37.997Z,100.00
2023-01-17T03:31:04.936Z,100.00
2023-01-17T03:33:32.702Z,100.00
2023-01-17T03:36:01.553Z,100.00
2023-01-17T03:38:29.339Z,100.00
2023-01-17T03:40:56.032Z,100.00
2023-01-17T03:43:22.636Z,100.00
2023-01-17T03:45:54.556Z,100.00
2023-01-17T03:48:21.693Z,100.00
2023-01-17T03:50:51.516Z,100.00
2023-01-17T03:53:18.066Z,100.00
2023-01-17T03:55:48.369Z,100.00
2023-01-17T03:58:16.353Z,100.00
2023-01-17T04:00:43.292Z,100.00
2023-01-17T04:03:09.846Z,100.00
2023-01-17T04:05:36.479Z,100.00
2023-01-17T04:08:03.503Z,100.00
2023-01-17T04:10:30.078Z,100.00
2023-01-17T04:12:56.718Z,100.00
2023-01-17T04:15:23.295Z,100.00
2023-01-17T04:17:52.315Z,100.00
2023-01-17T04:20:31.048Z,100.00
2023-01-17T04:23:00.112Z,100.00
2023-01-17T04:25:27.565Z,100.00
2023-01-17T04:27:54.209Z,100.00
2023-01-17T04:30:21.008Z,100.00
2023-01-17T04:32:47.668Z,100.00
2023-01-17T04:35:14.337Z,100.00
2023-01-17T04:37:43.211Z,100.00
2023-01-17T04:40:10.970Z,100.00
2023-01-17T04:42:37.994Z,100.00
2023-01-17T04:45:05.057Z,100.00
2023-01-17T04:47:33.164Z,100.00
2023-01-17T04:49:59.968Z,100.00
2023-01-17T04:52:26.584Z,100.00
2023-01-17T04:54:53.661Z,100.00
2023-01-17T04:57:20.329Z,100.00
2023-01-17T04:59:47.173Z,100.00
2023-01-17T05:02:14.532Z,100.00
2023-01-17T05:04:41.117Z,100.00
2023-01-17T05:07:08.164Z,100.00
2023-01-17T05:09:34.906Z,100.00
2023-01-17T05:12:01.644Z,100.00
2023-01-17T05:14:28.315Z,100.00
2023-01-17T05:16:58.574Z,100.00
2023-01-17T05:19:26.772Z,100.00
2023-01-17T05:21:53.567Z,100.00
2023-01-17T05:24:20.970Z,100.00
2023-01-17T05:26:54.819Z,100.00
2023-01-17T05:29:22.073Z,100.00
2023-01-17T05:31:48.621Z,100.00
2023-01-17T05:34:15.218Z,100.00
2023-01-17T05:36:41.790Z,100.00
2023-01-17T05:39:08.431Z,100.00
2023-01-17T05:41:37.206Z,100.00
2023-01-17T05:44:03.883Z,100.00
2023-01-17T05:46:33.455Z,100.00
2023-01-17T05:49:00.040Z,100.00
2023-01-17T05:51:26.724Z,100.00
2023-01-17T05:53:53.282Z,100.00
2023-01-17T05:56:19.808Z,100.00
2023-01-17T05:58:49.339Z,100.00
2023-01-17T06:01:19.570Z,100.00
2023-01-17T06:03:48.564Z,100.00
2023-01-17T06:06:15.190Z,100.00
2023-01-17T06:08:41.839Z,100.00
2023-01-17T06:11:08.486Z,100.00
2023-01-17T06:13:35.065Z,100.00
2023-01-17T06:16:03.978Z,100.00
2023-01-17T06:18:31.680Z,100.00
2023-01-17T06:20:58.474Z,100.00
2023-01-17T06:23:25.544Z,100.00
2023-01-17T06:25:54.374Z,100.00
2023-01-17T06:28:23.992Z,100.00
2023-01-17T06:30:55.404Z,100.00
2023-01-17T06:33:22.012Z,100.00
2023-01-17T06:35:53.087Z,100.00
2023-01-17T06:38:20.692Z,100.00
2023-01-17T06:40:47.517Z,100.00
2023-01-17T06:43:14.706Z,100.00
2023-01-17T06:45:41.295Z,100.00
2023-01-17T06:48:07.932Z,100.00
2023-01-17T06:50:34.664Z,100.00
2023-01-17T06:53:05.355Z,100.00
2023-01-17T06:55:33.812Z,100.00
2023-01-17T06:58:00.825Z,100.00
2023-01-17T07:00:27.771Z,100.00
2023-01-17T07:02:55.164Z,100.00
2023-01-17T07:05:21.810Z,100.00
2023-01-17T07:07:50.633Z,100.00
2023-01-17T07:10:19.264Z,100.00
2023-01-17T07:12:45.934Z,100.00
2023-01-17T07:15:15.215Z,100.00
2023-01-17T07:17:41.887Z,100.00
2023-01-17T07:20:09.286Z,100.00
2023-01-17T07:22:37.687Z,100.00
2023-01-17T07:25:04.817Z,100.00
2023-01-17T07:27:31.418Z,100.00
2023-01-17T07:29:58.100Z,100.00
2023-01-17T07:32:26.609Z,100.00
2023-01-17T07:34:54.375Z,100.00
2023-01-17T07:37:23.296Z,100.00
2023-01-17T07:39:49.901Z,100.00
2023-01-17T07:42:16.539Z,100.00
2023-01-17T07:44:45.021Z,100.00
2023-01-17T07:47:12.163Z,100.00
2023-01-17T07:49:38.764Z,100.00
2023-01-17T07:52:08.944Z,100.00
2023-01-17T07:54:38.403Z,100.00
2023-01-17T07:57:05.112Z,100.00
2023-01-17T07:59:33.767Z,100.00
2023-01-17T08:02:02.536Z,100.00
2023-01-17T08:04:34.847Z,100.00
2023-01-17T08:07:02.052Z,100.00
2023-01-17T08:09:28.664Z,100.00
2023-01-17T08:11:57.776Z,100.00
2023-01-17T08:14:24.941Z,100.00
2023-01-17T08:16:51.506Z,100.00
2023-01-17T08:19:18.087Z,100.00
2023-01-17T08:21:44.758Z,100.00
2023-01-17T08:24:14.773Z,100.00
2023-01-17T08:26:41.349Z,100.00
2023-01-17T08:29:08.152Z,100.00
2023-01-17T08:31:35.358Z,100.00
2023-01-17T08:34:02.039Z,100.00
2023-01-17T08:36:28.908Z,100.00
2023-01-17T08:38:58.868Z,100.00
2023-01-17T08:41:28.678Z,100.00
2023-01-17T08:43:55.198Z,100.00
2023-01-17T08:46:22.489Z,100.00
2023-01-17T08:48:53.302Z,100.00
2023-01-17T08:51:19.856Z,100.00
2023-01-17T08:53:46.425Z,100.00
2023-01-17T08:56:12.970Z,100.00
2023-01-17T08:58:41.443Z,100.00
2023-01-17T09:01:08.182Z,100.00
2023-01-17T09:03:35.189Z,100.00
2023-01-17T09:06:10.235Z,100.00
2023-01-17T09:08:37.480Z,100.00
2023-01-17T09:11:08.620Z,100.00
2023-01-17T09:13:37.862Z,100.00
2023-01-17T09:16:05.277Z,100.00
2023-01-17T09:18:33.117Z,100.00
2023-01-17T09:21:12.145Z,100.00
2023-01-17T09:23:38.820Z,100.00
2023-01-17T09:26:05.646Z,100.00
2023-01-17T09:28:39.636Z,99.80
2023-01-17T09:31:08.211Z,100.00
2023-01-17T09:33:35.162Z,99.88
2023-01-17T09:36:04.361Z,94.88
2023-01-17T09:38:32.290Z,95.35
2023-01-17T09:40:59.010Z,94.80
2023-01-17T09:43:49.013Z,90.44
2023-01-17T09:46:30.054Z,90.38
2023-01-17T09:49:08.936Z,88.14
2023-01-17T09:51:36.803Z,88.33
2023-01-17T09:54:03.677Z,82.08
2023-01-17T09:56:40.167Z,81.02
2023-01-17T09:59:18.798Z,85.80
2023-01-17T10:02:02.286Z,81.79
2023-01-17T10:04:59.278Z,78.01
2023-01-17T10:07:51.376Z,78.98
2023-01-17T10:10:21.046Z,79.87
2023-01-17T10:12:56.321Z,78.10
2023-01-17T10:16:00.973Z,76.20
2023-01-17T10:18:46.086Z,73.14
2023-01-17T10:21:44.160Z,74.89
2023-01-17T10:24:19.748Z,77.03
2023-01-17T10:26:50.441Z,71.61
2023-01-17T10:29:20.989Z,72.88
2023-01-17T10:31:55.729Z,69.11
2023-01-17T10:34:28.980Z,69.49
2023-01-17T10:37:06.462Z,73.39
2023-01-17T10:39:34.516Z,75.63
2023-01-17T10:42:14.321Z,70.83
2023-01-17T10:44:54.668Z,67.00
2023-01-17T10:47:24.096Z,71.71
2023-01-17T10:50:03.542Z,72.36
2023-01-17T10:52:55.610Z,73.39
2023-01-17T10:55:48.283Z,71.57
2023-01-17T10:58:14.903Z,70.57
2023-01-17T11:00:46.549Z,71.63
2023-01-17T11:03:15.783Z,68.21
2023-01-17T11:05:43.111Z,71.67
2023-01-17T11:08:14.381Z,76.49
2023-01-17T11:10:49.042Z,78.52
2023-01-17T11:13:34.336Z,84.04
2023-01-17T11:16:06.019Z,85.13
2023-01-17T11:18:38.468Z,85.40
2023-01-17T11:21:23.329Z,85.18
2023-01-17T11:23:58.892Z,86.18
2023-01-17T11:26:34.742Z,83.45
2023-01-17T11:29:23.228Z,83.08
2023-01-17T11:31:49.736Z,80.96
2023-01-17T11:34:18.647Z,79.44
2023-01-17T11:36:45.173Z,82.15
2023-01-17T11:39:17.875Z,81.95
2023-01-17T11:41:49.436Z,81.85
2023-01-17T11:44:28.857Z,83.53
2023-01-17T11:47:24.512Z,83.75
2023-01-17T11:49:51.069Z,81.63
2023-01-17T11:52:34.490Z,84.87
2023-01-17T11:55:01.096Z,83.91
2023-01-17T11:57:35.715Z,81.08
2023-01-17T12:00:14.381Z,83.76
2023-01-17T12:03:07.198Z,86.01
2023-01-17T12:05:58.052Z,86.00
2023-01-17T12:08:46.170Z,86.87
2023-01-17T12:11:32.012Z,86.05
2023-01-17T12:14:22.954Z,85.29
2023-01-17T12:17:07.765Z,86.96
2023-01-17T12:19:54.122Z,83.44
2023-01-17T12:22:38.627Z,86.17
2023-01-17T12:25:55.166Z,87.33
2023-01-17T12:28:59.982Z,89.36
2023-01-17T12:31:41.684Z,89.27
2023-01-17T12:34:32.386Z,88.43
2023-01-17T12:37:07.141Z,90.68
2023-01-17T12:39:40.425Z,93.53
2023-01-17T12:42:22.742Z,92.75
2023-01-17T12:45:04.560Z,92.20
2023-01-17T12:47:36.249Z,94.56
2023-01-17T12:50:10.002Z,93.07
2023-01-17T12:52:42.531Z,92.46
2023-01-17T12:55:17.636Z,95.18
2023-01-17T12:57:57.285Z,94.05
2023-01-17T13:00:29.627Z,94.91
2023-01-17T13:03:20.382Z,93.91
2023-01-17T13:05:48.509Z,96.19
2023-01-17T13:08:40.453Z,93.13
2023-01-17T13:11:27.858Z,97.48
2023-01-17T13:13:57.394Z,98.28
2023-01-17T13:16:42.045Z,96.70
2023-01-17T13:19:27.016Z,98.76
2023-01-17T13:21:55.253Z,98.05
2023-01-17T13:24:31.027Z,97.74
2023-01-17T13:27:08.243Z,99.86
2023-01-17T13:30:01.080Z,100.00
2023-01-17T13:33:17.275Z,98.22
2023-01-17T13:36:18.999Z,96.07
2023-01-17T13:39:00.702Z,96.55
2023-01-17T13:41:45.138Z,97.25
2023-01-17T13:44:24.636Z,98.06
2023-01-17T13:47:01.023Z,93.25
2023-01-17T13:49:34.111Z,96.34
2023-01-17T13:52:09.624Z,97.89
2023-01-17T13:54:54.531Z,97.07
2023-01-17T13:57:28.466Z,99.02
2023-01-17T13:59:57.444Z,100.00
2023-01-17T14:02:33.013Z,98.86
2023-01-17T14:05:05.650Z,98.93
2023-01-17T14:07:35.773Z,100.00
2023-01-17T14:10:21.086Z,100.00
2023-01-17T14:12:47.588Z,100.00
2023-01-17T14:15:21.149Z,100.00
2023-01-17T14:17:55.697Z,100.00
2023-01-17T14:20:49.926Z,100.00
2023-01-17T14:23:28.862Z,100.00
2023-01-17T14:25:59.142Z,100.00
2023-01-17T14:28:31.987Z,100.00
2023-01-17T14:31:00.942Z,100.00
2023-01-17T14:33:35.338Z,100.00
2023-01-17T14:36:05.676Z,100.00
2023-01-17T14:38:33.621Z,100.00
2023-01-17T14:41:07.482Z,100.00
2023-01-17T14:43:39.830Z,100.00
2023-01-17T14:46:17.189Z,100.00
2023-01-17T14:48:46.078Z,100.00
2023-01-17T14:51:18.318Z,100.00
2023-01-17T14:54:02.232Z,100.00
2023-01-17T14:56:30.624Z,100.00
2023-01-17T14:59:16.949Z,100.00
2023-01-17T15:02:06.309Z,100.00
2023-01-17T15:04:39.321Z,100.00
2023-01-17T15:07:15.001Z,100.00
2023-01-17T15:09:42.881Z,100.00
2023-01-17T15:12:14.070Z,100.00
2023-01-17T15:14:44.557Z,100.00
2023-01-17T15:17:20.118Z,100.00
2023-01-17T15:19:52.806Z,100.00
2023-01-17T15:22:20.216Z,100.00
2023-01-17T15:24:47.840Z,100.00
2023-01-17T15:27:16.844Z,100.00
2023-01-17T15:29:45.586Z,100.00
2023-01-17T15:32:31.422Z,100.00
2023-01-17T15:35:02.914Z,100.00
2023-01-17T15:37:35.179Z,100.00
2023-01-17T15:40:18.640Z,100.00
2023-01-17T15:42:49.215Z,100.00
2023-01-17T15:45:19.956Z,100.00
2023-01-17T15:47:46.686Z,100.00
2023-01-17T15:50:26.589Z,100.00
2023-01-17T15:52:57.412Z,100.00
2023-01-17T15:55:33.276Z,100.00
2023-01-17T15:58:00.943Z,100.00
2023-01-17T16:00:37.442Z,100.00
2023-01-17T16:03:21.569Z,100.00
2023-01-17T16:05:49.154Z,100.00
2023-01-17T16:08:16.392Z,100.00
2023-01-17T16:10:44.050Z,100.00
2023-01-17T16:13:12.860Z,100.00
2023-01-17T16:15:42.780Z,100.00
2023-01-17T16:18:15.446Z,100.00
2023-01-17T16:20:47.547Z,100.00
2023-01-17T16:23:14.271Z,100.00
2023-01-17T16:25:40.895Z,100.00
2023-01-17T16:28:07.497Z,100.00
2023-01-17T16:30:34.168Z,100.00
2023-01-17T16:33:00.770Z,100.00
2023-01-17T16:35:31.289Z,100.00
2023-01-17T16:38:01.104Z,100.00
2023-01-17T16:40:29.844Z,100.00
2023-01-17T16:42:57.429Z,100.00
2023-01-17T16:45:24.938Z,100.00
2023-01-17T16:47:52.665Z,100.00
2023-01-17T16:50:22.511Z,100.00
2023-01-17T16:52:54.248Z,100.00
2023-01-17T16:55:25.088Z,100.00
2023-01-17T16:57:54.138Z,100.00
2023-01-17T17:00:24.288Z,100.00
2023-01-17T17:02:51.530Z,100.00
2023-01-17T17:05:21.916Z,100.00
2023-01-17T17:07:53.070Z,100.00
2023-01-17T17:10:25.272Z,100.00
2023-01-17T17:12:52.156Z,100.00
2023-01-17T17:15:18.880Z,100.00
2023-01-17T17:17:45.876Z,100.00
2023-01-17T17:20:14.916Z,100.00
2023-01-17T17:22:46.042Z,100.00
2023-01-17T17:25:15.963Z,100.00
2023-01-17T17:27:42.876Z,100.00
2023-01-17T17:30:14.016Z,100.00
2023-01-17T17:32:40.607Z,100.00
2023-01-17T17:35:07.402Z,100.00
2023-01-17T17:37:34.477Z,100.00
2023-01-17T17:40:01.080Z,100.00
2023-01-17T17:42:27.646Z,100.00
2023-01-17T17:44:54.168Z,100.00
2023-01-17T17:47:20.684Z,100.00
2023-01-17T17:49:52.079Z,100.00
2023-01-17T17:52:18.722Z,100.00
2023-01-17T17:54:45.244Z,100.00
2023-01-17T17:57:11.734Z,100.00
2023-01-17T17:59:38.197Z,100.00
2023-01-17T18:02:11.013Z,100.00
2023-01-17T18:04:37.980Z,100.00
2023-01-17T18:07:04.486Z,100.00
2023-01-17T18:09:31.101Z,100.00
2023-01-17T18:11:57.775Z,100.00
2023-01-17T18:14:24.426Z,100.00
2023-01-17T18:16:51.727Z,100.00
2023-01-17T18:19:24.280Z,100.00
2023-01-17T18:21:54.433Z,100.00
2023-01-17T18:24:23.233Z,100.00
2023-01-17T18:26:56.787Z,100.00
2023-01-17T18:29:25.147Z,100.00
2023-01-17T18:31:55.572Z,100.00
2023-01-17T18:34:29.561Z,100.00
2023-01-17T18:36:57.159Z,100.00
2023-01-17T18:39:29.516Z,100.00
2023-01-17T18:41:56.630Z,100.00
2023-01-17T18:44:27.387Z,100.00
2023-01-17T18:46:54.630Z,100.00
2023-01-17T18:49:21.323Z,100.00
2023-01-17T18:51:51.837Z,100.00
2023-01-17T18:54:22.151Z,100.00
2023-01-17T18:56:48.706Z,100.00
2023-01-17T18:59:18.801Z,100.00
2023-01-17T19:01:45.661Z,100.00
2023-01-17T19:04:14.186Z,100.00
2023-01-17T19:06:42.951Z,100.00
2023-01-17T19:09:11.734Z,100.00
2023-01-17T19:11:38.339Z,100.00
2023-01-17T19:14:08.166Z,100.00
2023-01-17T19:16:39.422Z,100.00
2023-01-17T19:19:12.748Z,100.00
2023-01-17T19:21:39.581Z,100.00
2023-01-17T19:24:06.783Z,100.00
2023-01-17T19:26:34.142Z,100.00
2023-01-17T19:29:00.725Z,100.00
2023-01-17T19:31:28.916Z,100.00
2023-01-17T19:33:57.618Z,100.00
2023-01-17T19:36:27.469Z,100.00
2023-01-17T19:39:03.873Z,100.00
2023-01-17T19:41:31.147Z,100.00
2023-01-17T19:44:02.293Z,100.00
2023-01-17T19:46:29.197Z,100.00
2023-01-17T19:48:57.324Z,100.00
2023-01-17T19:51:25.423Z,100.00
2023-01-17T19:53:53.565Z,100.00
2023-01-17T19:56:22.693Z,100.00
2023-01-17T19:58:49.325Z,100.00
2023-01-17T20:01:18.692Z,100.00
2023-01-17T20:03:46.348Z,100.00
2023-01-17T20:06:15.776Z,100.00
2023-01-17T20:08:42.330Z,100.00
2023-01-17T20:11:14.565Z,100.00
2023-01-17T20:13:42.137Z,100.00
2023-01-17T20:16:11.100Z,100.00
2023-01-17T20:18:38.051Z,100.00
2023-01-17T20:21:14.129Z,100.00
2023-01-17T20:23:43.016Z,100.00
2023-01-17T20:26:11.323Z,100.00
2023-01-17T20:28:39.530Z,100.00
2023-01-17T20:31:08.898Z,100.00
2023-01-17T20:33:36.611Z,100.00
2023-01-17T20:36:10.662Z,100.00
2023-01-17T20:38:45.865Z,100.00
2023-01-17T20:41:16.867Z,100.00
2023-01-17T20:43:45.111Z,100.00
2023-01-17T20:46:14.403Z,100.00
2023-01-17T20:48:46.298Z,100.00
2023-01-17T20:51:13.810Z,100.00
2023-01-17T20:53:45.324Z,100.00
2023-01-17T20:56:13.967Z,100.00
2023-01-17T20:58:42.584Z,100.00
2023-01-17T21:01:11.962Z,100.00
2023-01-17T21:03:39.328Z,100.00
2023-01-17T21:06:11.367Z,100.00
2023-01-17T21:08:43.386Z,100.00
2023-01-17T21:11:12.789Z,100.00
2023-01-17T21:13:39.739Z,100.00
2023-01-17T21:16:10.660Z,100.00
2023-01-17T21:18:37.718Z,100.00
2023-01-17T21:21:11.051Z,100.00
2023-01-17T21:23:39.789Z,100.00
2023-01-17T21:26:08.576Z,100.00
2023-01-17T21:28:38.043Z,100.00
2023-01-17T21:31:23.157Z,100.00
2023-01-17T21:33:51.282Z,100.00
2023-01-17T21:36:21.166Z,100.00
2023-01-17T21:38:52.345Z,100.00
2023-01-17T21:41:27.266Z,100.00
2023-01-17T21:43:55.293Z,100.00
2023-01-17T21:46:24.672Z,100.00
2023-01-17T21:48:51.341Z,100.00
2023-01-17T21:51:19.672Z,100.00
2023-01-17T21:53:46.436Z,100.00
2023-01-17T21:56:32.544Z,100.00
2023-01-17T21:58:59.870Z,100.00
2023-01-17T22:01:28.944Z,100.00
2023-01-17T22:04:01.141Z,100.00
2023-01-17T22:06:30.468Z,100.00
2023-01-17T22:08:57.656Z,100.00
2023-01-17T22:11:26.652Z,100.00
2023-01-17T22:13:53.634Z,100.00
2023-01-17T22:16:23.437Z,100.00
2023-01-17T22:18:50.845Z,100.00
2023-01-17T22:21:20.157Z,100.00
2023-01-17T22:23:54.472Z,100.00
2023-01-17T22:26:23.436Z,100.00
2023-01-17T22:28:49.890Z,100.00
2023-01-17T22:31:17.603Z,100.00
2023-01-17T22:33:45.711Z,100.00
2023-01-17T22:36:13.859Z,100.00
2023-01-17T22:38:41.564Z,100.00
2023-01-17T22:41:10.651Z,100.00
2023-01-17T22:43:39.684Z,100.00
2023-01-17T22:46:08.468Z,100.00
2023-01-17T22:48:38.725Z,100.00
2023-01-17T22:51:07.797Z,100.00
2023-01-17T22:53:37.500Z,100.00
2023-01-17T22:56:06.854Z,100.00
2023-01-17T22:58:34.823Z,100.00
2023-01-17T23:01:13.249Z,100.00
2023-01-17T23:03:44.636Z,100.00
2023-01-17T23:06:12.565Z,100.00
2023-01-17T23:08:41.131Z,100.00
2023-01-17T23:11:43.696Z,100.00
2023-01-17T23:14:17.984Z,100.00
2023-01-17T23:17:20.803Z,100.00
2023-01-17T23:19:52.946Z,100.00
2023-01-17T23:22:26.891Z,100.00
2023-01-17T23:24:57.798Z,100.00
2023-01-17T23:27:43.772Z,100.00
2023-01-17T23:30:20.931Z,100.00
2023-01-17T23:33:14.371Z,100.00
2023-01-17T23:35:43.380Z,100.00
2023-01-17T23:38:30.884Z,100.00
2023-01-17T23:41:24.722Z,100.00
2023-01-17T23:43:58.644Z,100.00
2023-01-17T23:46:27.002Z,100.00
2023-01-17T23:48:54.836Z,100.00
2023-01-17T23:51:23.653Z,100.00
2023-01-17T23:53:53.386Z,100.00
2023-01-17T23:56:23.046Z,100.00
2023-01-17T23:58:51.883Z,100.00
